createdAt,value
2023-01-15T00:00:49.024Z,69.42
2023-01-15T00:03:52.448Z,70.36
2023-01-15T00:06:55.077Z,69.14
2023-01-15T00:09:57.692Z,68.58
2023-01-15T00:13:04.462Z,69.23
2023-01-15T00:16:08.669Z,69.13
2023-01-15T00:19:12.248Z,68.49
2023-01-15T00:22:14.883Z,69.26
2023-01-15T00:25:35.059Z,69.04
2023-01-15T00:28:39.019Z,68.04
2023-01-15T00:31:41.883Z,67.99
2023-01-15T00:34:44.682Z,67.47
2023-01-15T00:37:47.221Z,67.86
2023-01-15T00:40:53.011Z,67.33
2023-01-15T00:43:57.644Z,67.56
2023-01-15T00:47:00.436Z,67.01
2023-01-15T00:50:03.365Z,66.76
2023-01-15T00:53:05.964Z,66.56
2023-01-15T00:56:09.002Z,65.94
2023-01-15T00:59:13.046Z,66.35
2023-01-15T01:02:15.748Z,65.86
2023-01-15T01:05:18.521Z,65.50
2023-01-15T01:08:21.620Z,66.31
2023-01-15T01:11:26.799Z,66.14
2023-01-15T01:14:30.901Z,66.20
2023-01-15T01:17:33.852Z,66.24
2023-01-15T01:20:39.152Z,65.61
2023-01-15T01:23:41.878Z,65.11
2023-01-15T01:26:45.836Z,65.73
2023-01-15T01:29:49.811Z,65.46
2023-01-15T01:32:52.412Z,65.18
2023-01-15T01:35:54.920Z,64.72
2023-01-15T01:38:57.697Z,64.47
2023-01-15T01:42:00.837Z,64.67
2023-01-15T01:45:14.336Z,64.45
2023-01-15T01:48:18.955Z,64.99
2023-01-15T01:51:23.216Z,65.00
2023-01-15T01:54:27.080Z,65.07
2023-01-15T01:57:30.107Z,65.28
2023-01-15T02:00:35.187Z,65.80
2023-01-15T02:03:39.381Z,66.71
2023-01-15T02:06:43.617Z,65.65
2023-01-15T02:09:46.343Z,67.03
2023-01-15T02:12:55.511Z,66.59
2023-01-15T02:16:02.126Z,66.82
2023-01-15T02:19:23.345Z,66.83
2023-01-15T02:22:33.932Z,66.61
2023-01-15T02:25:48.997Z,67.25
2023-01-15T02:28:55.526Z,68.13
2023-01-15T02:31:59.863Z,67.65
2023-01-15T02:35:07.302Z,67.24
2023-01-15T02:38:13.005Z,67.27
2023-01-15T02:41:17.966Z,66.90
2023-01-15T02:44:23.633Z,66.98
2023-01-15T02:47:29.112Z,66.78
2023-01-15T02:50:34.662Z,66.91
2023-01-15T02:53:39.151Z,67.11
2023-01-15T02:56:42.393Z,67.78
2023-01-15T02:59:49.067Z,67.85
2023-01-15T03:02:55.465Z,68.98
2023-01-15T03:06:01.561Z,69.39
2023-01-15T03:09:04.877Z,69.76
2023-01-15T03:12:14.504Z,69.83
2023-01-15T03:15:41.086Z,70.38
2023-01-15T03:18:46.878Z,70.64
2023-01-15T03:21:56.529Z,70.84
2023-01-15T03:25:04.176Z,70.08
2023-01-15T03:28:07.694Z,70.01
2023-01-15T03:31:11.591Z,71.12
2023-01-15T03:34:14.200Z,70.34
2023-01-15T03:37:17.000Z,69.10
2023-01-15T03:40:19.723Z,68.99
2023-01-15T03:43:41.777Z,68.57
2023-01-15T03:46:54.195Z,68.87
2023-01-15T03:50:03.197Z,68.39
2023-01-15T03:53:12.713Z,68.12
2023-01-15T03:56:19.594Z,66.98
2023-01-15T03:59:25.195Z,66.94
2023-01-15T04:02:29.993Z,65.99
2023-01-15T04:05:33.379Z,65.73
2023-01-15T04:08:39.291Z,65.27
2023-01-15T04:11:42.150Z,64.44
2023-01-15T04:14:44.792Z,64.83
2023-01-15T04:17:48.852Z,64.43
2023-01-15T04:20:52.333Z,64.54
2023-01-15T04:23:54.856Z,64.57
2023-01-15T04:26:57.363Z,65.18
2023-01-15T04:30:00.202Z,65.14
2023-01-15T04:33:04.484Z,65.02
2023-01-15T04:36:08.032Z,65.49
2023-01-15T04:39:10.496Z,65.41
2023-01-15T04:42:45.120Z,65.85
2023-01-15T04:45:47.996Z,65.97
2023-01-15T04:48:52.014Z,65.61
2023-01-15T04:51:54.584Z,66.04
2023-01-15T04:54:57.525Z,65.61
2023-01-15T04:58:00.129Z,65.36
2023-01-15T05:01:03.105Z,65.50
2023-01-15T05:04:09.025Z,65.67
2023-01-15T05:07:11.755Z,66.06
2023-01-15T05:10:14.462Z,65.79
2023-01-15T05:13:17.131Z,65.96
2023-01-15T05:16:21.799Z,65.77
2023-01-15T05:19:25.768Z,65.87
2023-01-15T05:22:28.334Z,65.09
2023-01-15T05:25:30.971Z,66.03
2023-01-15T05:28:33.587Z,75.33
2023-01-15T05:31:36.174Z,80.46
2023-01-15T05:34:40.079Z,82.28
2023-01-15T05:37:42.836Z,83.45
2023-01-15T05:40:45.464Z,83.82
2023-01-15T05:43:48.084Z,84.48
2023-01-15T05:46:51.876Z,83.78
2023-01-15T05:49:55.849Z,84.07
2023-01-15T05:52:58.476Z,84.71
2023-01-15T05:56:01.977Z,83.32
2023-01-15T05:59:05.160Z,84.50
2023-01-15T06:02:07.855Z,82.44
2023-01-15T06:05:11.913Z,82.04
2023-01-15T06:08:14.451Z,82.76
2023-01-15T06:11:17.029Z,82.05
2023-01-15T06:14:19.571Z,80.81
2023-01-15T06:17:22.234Z,80.27
2023-01-15T06:20:26.161Z,80.28
2023-01-15T06:23:29.088Z,79.16
2023-01-15T06:26:31.863Z,78.96
2023-01-15T06:29:34.526Z,78.36
2023-01-15T06:32:37.317Z,79.34
2023-01-15T06:35:41.238Z,79.08
2023-01-15T06:38:44.470Z,79.00
2023-01-15T06:42:04.542Z,79.24
2023-01-15T06:45:30.666Z,79.46
2023-01-15T06:48:34.729Z,80.95
2023-01-15T06:51:38.824Z,82.14
2023-01-15T06:54:42.472Z,82.69
2023-01-15T06:57:45.751Z,83.23
2023-01-15T07:00:55.151Z,82.87
2023-01-15T07:03:58.158Z,83.16
2023-01-15T07:07:02.425Z,82.68
2023-01-15T07:10:05.757Z,82.29
2023-01-15T07:13:10.434Z,83.76
2023-01-15T07:16:27.190Z,82.00
2023-01-15T07:19:29.815Z,81.68
2023-01-15T07:22:33.841Z,82.00
2023-01-15T07:25:37.674Z,82.51
2023-01-15T07:28:40.539Z,82.49
2023-01-15T07:31:43.296Z,82.02
2023-01-15T07:34:46.361Z,81.67
2023-01-15T07:37:53.515Z,82.79
2023-01-15T07:41:11.237Z,81.09
2023-01-15T07:44:31.353Z,81.62
2023-01-15T07:47:54.089Z,82.73
2023-01-15T07:50:56.719Z,81.61
2023-01-15T07:54:00.775Z,80.22
2023-01-15T07:57:03.874Z,81.30
2023-01-15T08:00:08.227Z,80.40
2023-01-15T08:03:11.176Z,80.77
2023-01-15T08:06:13.940Z,79.71
2023-01-15T08:09:18.765Z,81.10
2023-01-15T08:12:38.932Z,80.02
2023-01-15T08:15:43.949Z,79.84
2023-01-15T08:18:46.845Z,79.38
2023-01-15T08:21:49.525Z,78.71
2023-01-15T08:24:53.431Z,79.55
2023-01-15T08:27:56.548Z,79.24
2023-01-15T08:30:59.354Z,78.31
2023-01-15T08:34:02.879Z,78.51
2023-01-15T08:37:05.777Z,78.33
2023-01-15T08:40:11.416Z,78.33
2023-01-15T08:43:14.095Z,77.93
2023-01-15T08:46:16.614Z,77.47
2023-01-15T08:49:20.762Z,77.56
2023-01-15T08:52:23.477Z,77.26
2023-01-15T08:55:27.472Z,77.21
2023-01-15T08:58:30.884Z,77.52
2023-01-15T09:01:33.790Z,78.22
2023-01-15T09:04:36.585Z,76.45
2023-01-15T09:07:39.289Z,78.10
2023-01-15T09:10:43.254Z,77.27
2023-01-15T09:13:46.762Z,77.64
2023-01-15T09:16:49.407Z,77.91
2023-01-15T09:19:51.930Z,77.75
2023-01-15T09:22:54.544Z,77.64
2023-01-15T09:25:59.553Z,77.38
2023-01-15T09:29:02.503Z,76.86
2023-01-15T09:32:05.122Z,76.24
2023-01-15T09:35:08.828Z,75.39
2023-01-15T09:38:12.189Z,77.08
2023-01-15T09:41:31.011Z,75.72
2023-01-15T09:44:41.659Z,76.04
2023-01-15T09:47:52.411Z,75.68
2023-01-15T09:51:07.897Z,74.26
2023-01-15T09:54:22.085Z,73.63
2023-01-15T09:57:26.619Z,72.42
2023-01-15T10:00:33.881Z,73.07
2023-01-15T10:03:42.745Z,71.54
2023-01-15T10:06:49.592Z,72.39
2023-01-15T10:09:57.859Z,72.11
2023-01-15T10:13:09.083Z,73.07
2023-01-15T10:16:13.162Z,72.81
2023-01-15T10:19:15.702Z,72.91
2023-01-15T10:22:28.953Z,72.35
2023-01-15T10:25:37.556Z,72.79
2023-01-15T10:28:54.265Z,73.01
2023-01-15T10:32:03.586Z,72.84
2023-01-15T10:35:21.596Z,72.76
2023-01-15T10:38:28.533Z,72.75
2023-01-15T10:41:40.297Z,72.91
2023-01-15T10:44:48.818Z,72.53
2023-01-15T10:47:56.407Z,74.09
2023-01-15T10:51:02.860Z,75.58
2023-01-15T10:54:11.751Z,74.95
2023-01-15T10:57:17.427Z,74.74
2023-01-15T11:00:24.424Z,75.42
2023-01-15T11:03:34.367Z,78.84
2023-01-15T11:06:37.225Z,82.15
2023-01-15T11:09:41.521Z,78.86
2023-01-15T11:13:08.972Z,78.01
2023-01-15T11:16:34.770Z,78.04
2023-01-15T11:19:40.770Z,76.42
2023-01-15T11:22:44.926Z,76.29
2023-01-15T11:25:52.162Z,75.67
2023-01-15T11:28:55.758Z,76.19
2023-01-15T11:32:00.011Z,75.88
2023-01-15T11:35:04.689Z,76.13
2023-01-15T11:38:08.525Z,76.02
2023-01-15T11:41:17.841Z,76.67
2023-01-15T11:44:40.361Z,76.11
2023-01-15T11:48:10.501Z,76.67
2023-01-15T11:51:15.819Z,74.29
2023-01-15T11:54:19.139Z,74.34
2023-01-15T11:57:28.460Z,73.96
2023-01-15T12:00:43.613Z,73.79
2023-01-15T12:03:47.960Z,72.70
2023-01-15T12:06:50.855Z,73.34
2023-01-15T12:10:14.958Z,71.84
2023-01-15T12:13:25.851Z,70.99
2023-01-15T12:16:31.548Z,69.87
2023-01-15T12:19:41.014Z,69.45
2023-01-15T12:22:58.843Z,69.44
2023-01-15T12:26:06.505Z,69.98
2023-01-15T12:29:22.751Z,69.43
2023-01-15T12:32:29.519Z,69.65
2023-01-15T12:35:34.640Z,68.23
2023-01-15T12:38:46.281Z,69.01
2023-01-15T12:42:10.628Z,68.82
2023-01-15T12:45:16.629Z,67.91
2023-01-15T12:48:24.011Z,68.64
2023-01-15T12:51:31.672Z,67.44
2023-01-15T12:54:38.064Z,67.75
2023-01-15T12:57:44.683Z,66.95
2023-01-15T13:00:47.457Z,66.13
2023-01-15T13:03:57.677Z,66.42
2023-01-15T13:07:17.573Z,65.95
2023-01-15T13:10:21.605Z,65.08
2023-01-15T13:13:25.957Z,64.78
2023-01-15T13:16:34.435Z,63.20
2023-01-15T13:19:44.549Z,63.14
2023-01-15T13:22:56.321Z,63.02
2023-01-15T13:26:09.610Z,62.58
2023-01-15T13:29:20.055Z,62.79
2023-01-15T13:32:24.690Z,63.63
2023-01-15T13:35:31.446Z,63.57
2023-01-15T13:38:40.604Z,63.25
2023-01-15T13:42:01.117Z,63.81
2023-01-15T13:45:08.299Z,63.56
2023-01-15T13:48:16.604Z,64.07
2023-01-15T13:51:29.294Z,65.11
2023-01-15T13:54:34.570Z,63.40
2023-01-15T13:57:39.576Z,56.36
2023-01-15T14:00:42.449Z,45.26
2023-01-15T14:03:56.860Z,40.93
2023-01-15T14:06:59.572Z,33.46
2023-01-15T14:10:11.715Z,29.45
2023-01-15T14:13:42.755Z,33.38
2023-01-15T14:16:54.758Z,28.75
2023-01-15T14:20:11.910Z,28.38
2023-01-15T14:23:25.610Z,25.28
2023-01-15T14:26:34.354Z,24.26
2023-01-15T14:29:56.110Z,25.17
2023-01-15T14:33:04.832Z,28.64
2023-01-15T14:36:12.332Z,38.42
2023-01-15T14:39:43.998Z,46.84
2023-01-15T14:43:02.858Z,49.92
2023-01-15T14:46:15.684Z,53.65
2023-01-15T14:49:29.493Z,54.94
2023-01-15T14:52:32.325Z,55.96
2023-01-15T14:55:39.480Z,56.71
2023-01-15T14:58:51.960Z,58.25
2023-01-15T15:01:58.215Z,58.19
2023-01-15T15:05:01.756Z,57.81
2023-01-15T15:08:05.196Z,58.47
2023-01-15T15:11:37.739Z,59.05
2023-01-15T15:14:42.165Z,57.81
2023-01-15T15:17:53.147Z,59.08
2023-01-15T15:21:03.113Z,60.19
2023-01-15T15:24:08.809Z,60.19
2023-01-15T15:27:17.024Z,59.94
2023-01-15T15:30:21.525Z,60.30
2023-01-15T15:33:27.104Z,60.43
2023-01-15T15:36:31.275Z,60.81
2023-01-15T15:39:40.069Z,60.56
2023-01-15T15:43:07.588Z,60.75
2023-01-15T15:46:42.433Z,62.45
2023-01-15T15:49:45.191Z,62.25
2023-01-15T15:52:50.179Z,61.93
2023-01-15T15:55:54.144Z,62.75
2023-01-15T15:58:58.448Z,62.44
2023-01-15T16:02:15.917Z,62.71
2023-01-15T16:05:23.887Z,62.68
2023-01-15T16:08:27.410Z,63.41
2023-01-15T16:11:30.260Z,64.50
2023-01-15T16:14:35.794Z,63.32
2023-01-15T16:17:41.411Z,63.60
2023-01-15T16:20:44.524Z,64.62
2023-01-15T16:23:57.665Z,65.37
2023-01-15T16:27:04.025Z,66.34
2023-01-15T16:30:07.670Z,66.24
2023-01-15T16:33:19.012Z,65.92
2023-01-15T16:36:22.430Z,66.32
2023-01-15T16:39:28.070Z,65.64
2023-01-15T16:42:35.509Z,66.13
2023-01-15T16:45:57.459Z,66.42
2023-01-15T16:49:24.872Z,67.02
2023-01-15T16:52:48.793Z,67.10
2023-01-15T16:55:55.133Z,67.27
2023-01-15T16:58:58.123Z,67.44
2023-01-15T17:02:05.877Z,67.85
2023-01-15T17:05:19.210Z,67.92
2023-01-15T17:08:24.026Z,67.80
2023-01-15T17:11:30.067Z,68.49
2023-01-15T17:14:33.099Z,68.54
2023-01-15T17:17:35.629Z,68.27
2023-01-15T17:20:39.682Z,69.43
2023-01-15T17:23:43.087Z,69.95
2023-01-15T17:26:45.992Z,69.79
2023-01-15T17:29:48.717Z,69.84
2023-01-15T17:32:51.706Z,69.50
2023-01-15T17:35:58.251Z,69.57
2023-01-15T17:39:00.866Z,69.54
2023-01-15T17:42:03.756Z,69.59
2023-01-15T17:45:07.204Z,69.85
2023-01-15T17:48:13.439Z,70.11
2023-01-15T17:51:18.304Z,69.76
2023-01-15T17:54:42.797Z,70.36
2023-01-15T17:58:03.489Z,69.79
2023-01-15T18:01:31.079Z,70.46
2023-01-15T18:04:55.431Z,70.51
2023-01-15T18:07:59.535Z,71.11
2023-01-15T18:11:02.155Z,71.38
2023-01-15T18:14:04.697Z,71.08
2023-01-15T18:17:07.214Z,71.58
2023-01-15T18:20:12.473Z,72.46
2023-01-15T18:23:16.907Z,72.28
2023-01-15T18:26:19.520Z,72.35
2023-01-15T18:29:23.068Z,70.72
2023-01-15T18:32:28.653Z,70.94
2023-01-15T18:35:31.963Z,70.45
2023-01-15T18:38:37.565Z,69.59
2023-01-15T18:41:58.431Z,68.69
2023-01-15T18:45:18.939Z,68.55
2023-01-15T18:48:21.454Z,68.56
2023-01-15T18:51:25.550Z,68.13
2023-01-15T18:54:29.805Z,67.06
2023-01-15T18:57:34.434Z,66.84
2023-01-15T19:00:37.180Z,66.25
2023-01-15T19:03:39.906Z,66.48
2023-01-15T19:06:43.182Z,66.28
2023-01-15T19:09:47.382Z,66.11
2023-01-15T19:12:50.084Z,66.05
2023-01-15T19:16:10.552Z,66.17
2023-01-15T19:19:13.484Z,65.45
2023-01-15T19:22:34.251Z,65.88
2023-01-15T19:25:40.012Z,64.93
2023-01-15T19:28:42.667Z,64.84
2023-01-15T19:31:46.532Z,64.50
2023-01-15T19:34:50.581Z,64.50
2023-01-15T19:37:55.217Z,64.16
2023-01-15T19:41:19.786Z,64.26
2023-01-15T19:44:40.011Z,64.20
2023-01-15T19:48:00.529Z,64.36
2023-01-15T19:51:03.687Z,63.68
2023-01-15T19:54:06.753Z,64.27
2023-01-15T19:57:11.114Z,64.63
2023-01-15T20:00:15.944Z,64.37
2023-01-15T20:03:18.595Z,64.67
2023-01-15T20:06:21.368Z,64.34
2023-01-15T20:09:24.293Z,64.13
2023-01-15T20:12:46.448Z,63.66
2023-01-15T20:15:49.273Z,63.16
2023-01-15T20:18:53.458Z,63.05
2023-01-15T20:21:56.439Z,62.88
2023-01-15T20:24:59.081Z,63.36
2023-01-15T20:28:02.989Z,63.41
2023-01-15T20:31:09.661Z,63.14
2023-01-15T20:34:12.209Z,63.07
2023-01-15T20:37:15.084Z,63.41
2023-01-15T20:40:20.331Z,63.63
2023-01-15T20:43:41.962Z,63.37
2023-01-15T20:46:44.561Z,63.58
2023-01-15T20:49:46.214Z,63.90
2023-01-15T20:52:50.217Z,64.08
2023-01-15T20:55:57.418Z,64.37
2023-01-15T20:59:02.377Z,64.41
2023-01-15T21:02:05.136Z,65.18
2023-01-15T21:05:09.048Z,66.12
2023-01-15T21:08:11.990Z,66.10
2023-01-15T21:11:14.583Z,66.54
2023-01-15T21:14:18.641Z,67.25
2023-01-15T21:17:22.382Z,67.21
2023-01-15T21:20:25.117Z,67.25
2023-01-15T21:23:28.756Z,67.47
2023-01-15T21:26:31.973Z,67.05
2023-01-15T21:29:36.045Z,66.53
2023-01-15T21:32:39.443Z,66.83
2023-01-15T21:35:42.300Z,67.35
2023-01-15T21:38:45.128Z,68.07
2023-01-15T21:42:06.939Z,66.91
2023-01-15T21:45:12.857Z,66.84
2023-01-15T21:48:15.563Z,67.16
2023-01-15T21:51:18.342Z,66.29
2023-01-15T21:54:21.000Z,66.15
2023-01-15T21:57:23.645Z,66.11
2023-01-15T22:00:28.326Z,66.67
2023-01-15T22:03:30.985Z,65.94
2023-01-15T22:06:33.681Z,65.68
2023-01-15T22:09:36.412Z,65.72
2023-01-15T22:12:42.940Z,65.74
2023-01-15T22:15:54.519Z,65.72
2023-01-15T22:18:57.173Z,65.83
2023-01-15T22:22:01.798Z,64.98
2023-01-15T22:25:05.605Z,65.00
2023-01-15T22:28:08.301Z,64.82
2023-01-15T22:31:12.646Z,64.84
2023-01-15T22:34:15.146Z,64.96
2023-01-15T22:37:17.879Z,65.26
2023-01-15T22:40:20.600Z,65.16
2023-01-15T22:43:23.407Z,64.93
2023-01-15T22:46:27.403Z,64.73
2023-01-15T22:49:30.586Z,64.51
2023-01-15T22:52:33.371Z,64.04
2023-01-15T22:55:36.529Z,64.17
2023-01-15T22:58:42.502Z,63.77
2023-01-15T23:01:46.711Z,64.11
2023-01-15T23:04:49.604Z,63.89
2023-01-15T23:07:52.231Z,63.89
2023-01-15T23:10:54.854Z,63.47
2023-01-15T23:13:57.990Z,63.86
2023-01-15T23:17:01.925Z,63.67
2023-01-15T23:20:05.477Z,63.67
2023-01-15T23:23:08.078Z,63.27
2023-01-15T23:26:12.969Z,63.25
2023-01-15T23:29:15.728Z,63.59
2023-01-15T23:32:19.677Z,63.51
2023-01-15T23:35:22.558Z,64.09
2023-01-15T23:38:25.143Z,64.29
2023-01-15T23:41:45.556Z,64.34
2023-01-15T23:45:05.684Z,63.15
2023-01-15T23:48:09.568Z,62.91
2023-01-15T23:51:12.145Z,63.07
2023-01-15T23:54:15.469Z,63.04
2023-01-15T23:57:18.010Z,62.14
